93AR weather

Ohlendorf Airport
Osceola, Arkansas, United States

Public forecast

Using degrees Fahrenheit for public forecast. Weather courtesy of forecast.io.

METAR (pilot weather report)

Closest report is Millington-Memphis Airport, 16.8 nm (31.2 km) SSE. Retrieved 2019/05/24 10:20 UTC (16 minutes ago):

KNQA 241020Z AUTO 00000KT 10SM CLR 20/19 A3009 RMK A01

TAF (pilot weather forecast)

Closest forecast is Jonesboro Municipal Airport, 34.6 nm (64.0 km) WNW. Retrieved 2019/05/24 06:22 UTC (4 hours ago):

TAF KJBR 240520Z 2406/2506 18004KT P6SM SCT250 FM241500 21011G18KT P6SM FEW050 SCT250 FM250200 19005KT P6SM SCT250